createdAt,value
2022-12-20T00:00:19.737Z,73.10
2022-12-20T00:03:06.746Z,73.10
2022-12-20T00:05:43.677Z,73.30
2022-12-20T00:08:10.827Z,73.30
2022-12-20T00:10:45.736Z,73.30
2022-12-20T00:13:12.996Z,73.30
2022-12-20T00:15:46.781Z,73.40
2022-12-20T00:18:13.763Z,73.40
2022-12-20T00:20:46.692Z,73.50
2022-12-20T00:23:13.523Z,73.50
2022-12-20T00:25:46.734Z,73.50
2022-12-20T00:28:19.708Z,73.40
2022-12-20T00:30:46.548Z,73.40
2022-12-20T00:33:19.730Z,73.40
2022-12-20T00:35:46.764Z,73.30
2022-12-20T00:38:20.689Z,73.10
2022-12-20T00:40:47.567Z,73.20
2022-12-20T00:43:20.694Z,73.30
2022-12-20T00:45:47.538Z,73.30
2022-12-20T00:48:20.701Z,73.30
2022-12-20T00:50:53.687Z,73.50
2022-12-20T00:53:26.859Z,73.60
2022-12-20T00:55:53.781Z,73.70
2022-12-20T00:58:27.751Z,73.80
2022-12-20T01:00:56.873Z,73.60
2022-12-20T01:03:37.821Z,73.70
2022-12-20T01:06:04.778Z,73.90
2022-12-20T01:08:38.723Z,74.00
2022-12-20T01:11:11.374Z,73.90
2022-12-20T01:13:45.744Z,74.00
2022-12-20T01:16:25.011Z,74.10
2022-12-20T01:18:58.748Z,74.10
2022-12-20T01:21:27.271Z,74.10
2022-12-20T01:24:00.667Z,74.10
2022-12-20T01:26:29.149Z,74.00
2022-12-20T01:29:05.662Z,74.00
2022-12-20T01:31:38.765Z,74.10
2022-12-20T01:34:05.666Z,74.00
2022-12-20T01:36:40.668Z,74.10
2022-12-20T01:39:09.518Z,74.10
2022-12-20T01:41:44.719Z,74.10
2022-12-20T01:44:24.723Z,74.00
2022-12-20T01:46:58.658Z,74.00
2022-12-20T01:49:34.265Z,73.90
2022-12-20T01:52:11.768Z,73.90
2022-12-20T01:54:41.315Z,73.90
2022-12-20T01:57:32.756Z,73.80
2022-12-20T01:59:59.717Z,73.90
2022-12-20T02:02:47.861Z,74.00
2022-12-20T02:05:22.899Z,74.00
2022-12-20T02:07:57.731Z,74.00
2022-12-20T02:10:27.671Z,73.90
2022-12-20T02:13:06.715Z,74.10
2022-12-20T02:15:40.316Z,74.00
2022-12-20T02:18:13.735Z,73.80
2022-12-20T02:20:50.124Z,73.70
2022-12-20T02:23:33.782Z,73.70
2022-12-20T02:26:06.762Z,73.90
2022-12-20T02:28:36.796Z,74.00
2022-12-20T02:31:11.741Z,74.20
2022-12-20T02:33:39.600Z,74.20
2022-12-20T02:36:12.755Z,74.10
2022-12-20T02:38:45.722Z,74.10
2022-12-20T02:41:16.779Z,74.20
2022-12-20T02:44:12.778Z,74.20
2022-12-20T02:46:40.033Z,74.20
2022-12-20T02:49:17.728Z,74.20
2022-12-20T02:51:46.563Z,74.00
2022-12-20T02:54:20.744Z,73.80
2022-12-20T02:56:57.738Z,73.90
2022-12-20T02:59:32.686Z,73.90
2022-12-20T03:02:06.826Z,74.10
2022-12-20T03:04:50.729Z,74.00
2022-12-20T03:07:23.710Z,73.80
2022-12-20T03:09:56.714Z,74.10
2022-12-20T03:12:29.783Z,74.20
2022-12-20T03:14:56.579Z,74.10
2022-12-20T03:17:29.779Z,74.10
2022-12-20T03:19:56.844Z,74.20
2022-12-20T03:22:30.726Z,74.20
2022-12-20T03:25:03.769Z,74.30
2022-12-20T03:27:30.614Z,74.20
2022-12-20T03:30:03.728Z,74.00
2022-12-20T03:32:30.578Z,74.30
2022-12-20T03:35:03.756Z,74.10
2022-12-20T03:37:30.755Z,74.30
2022-12-20T03:40:03.722Z,74.50
2022-12-20T03:42:30.526Z,74.50
2022-12-20T03:45:03.708Z,74.50
2022-12-20T03:47:30.660Z,74.60
2022-12-20T03:50:03.692Z,74.60
2022-12-20T03:52:30.573Z,74.50
2022-12-20T03:55:03.746Z,74.40
2022-12-20T03:57:30.766Z,74.50
2022-12-20T04:00:04.683Z,74.40
2022-12-20T04:02:37.998Z,74.30
2022-12-20T04:05:12.040Z,73.90
2022-12-20T04:07:45.785Z,74.10
2022-12-20T04:10:12.692Z,74.30
2022-12-20T04:12:45.739Z,74.50
2022-12-20T04:15:18.759Z,74.30
2022-12-20T04:17:45.596Z,74.00
2022-12-20T04:20:28.754Z,73.90
2022-12-20T04:22:55.621Z,74.00
2022-12-20T04:25:28.836Z,74.30
2022-12-20T04:27:55.722Z,74.10
2022-12-20T04:30:29.757Z,74.20
2022-12-20T04:33:02.705Z,74.30
2022-12-20T04:35:35.752Z,74.60
2022-12-20T04:38:02.586Z,75.10
2022-12-20T04:40:35.756Z,74.90
2022-12-20T04:43:08.737Z,74.90
2022-12-20T04:45:35.637Z,75.00
2022-12-20T04:48:37.094Z,75.30
2022-12-20T04:50:56.389Z,75.30
2022-12-20T04:53:48.959Z,75.60
2022-12-20T04:56:23.404Z,75.40
2022-12-20T04:58:57.754Z,75.00
2022-12-20T05:01:24.999Z,75.00
2022-12-20T05:04:05.801Z,74.70
2022-12-20T05:06:32.649Z,75.20
2022-12-20T05:09:05.799Z,75.40
2022-12-20T05:11:38.725Z,75.40
2022-12-20T05:14:05.575Z,75.60
2022-12-20T05:16:38.854Z,75.60
2022-12-20T05:19:12.757Z,75.60
2022-12-20T05:22:04.719Z,75.30
2022-12-20T05:24:56.738Z,75.50
2022-12-20T05:27:23.731Z,75.40
2022-12-20T05:29:56.758Z,75.40
2022-12-20T05:32:23.636Z,75.10
2022-12-20T05:34:56.728Z,74.80
2022-12-20T05:37:23.565Z,74.60
2022-12-20T05:39:57.768Z,74.60
2022-12-20T05:42:24.620Z,74.80
2022-12-20T05:44:58.743Z,74.60
2022-12-20T05:47:25.615Z,75.10
2022-12-20T05:49:58.700Z,75.30
2022-12-20T05:52:25.645Z,75.60
2022-12-20T05:54:58.765Z,75.60
2022-12-20T05:57:25.576Z,75.50
2022-12-20T05:59:58.744Z,75.50
2022-12-20T06:02:45.937Z,75.50
2022-12-20T06:05:19.774Z,75.60
2022-12-20T06:07:52.829Z,75.80
2022-12-20T06:10:19.667Z,75.70
2022-12-20T06:12:46.517Z,75.30
2022-12-20T06:15:22.748Z,75.20
2022-12-20T06:17:55.739Z,75.30
2022-12-20T06:20:22.848Z,75.30
2022-12-20T06:22:55.699Z,75.30
2022-12-20T06:25:29.771Z,75.50
2022-12-20T06:27:56.682Z,75.70
2022-12-20T06:30:33.776Z,75.80
2022-12-20T06:33:01.842Z,75.40
2022-12-20T06:35:35.743Z,75.00
2022-12-20T06:38:02.569Z,75.30
2022-12-20T06:40:35.789Z,75.40
2022-12-20T06:43:02.642Z,75.30
2022-12-20T06:45:41.196Z,75.60
2022-12-20T06:48:08.673Z,75.70
2022-12-20T06:50:41.754Z,75.40
2022-12-20T06:53:08.633Z,75.70
2022-12-20T06:55:41.688Z,75.80
2022-12-20T06:58:08.558Z,75.90
2022-12-20T07:00:41.738Z,75.80
2022-12-20T07:03:15.215Z,75.90
2022-12-20T07:05:48.764Z,76.00
2022-12-20T07:08:15.599Z,75.90
2022-12-20T07:10:48.710Z,75.80
2022-12-20T07:13:22.745Z,75.70
2022-12-20T07:15:55.735Z,75.60
2022-12-20T07:18:22.583Z,75.60
2022-12-20T07:20:55.711Z,75.50
2022-12-20T07:23:22.675Z,75.70
2022-12-20T07:26:02.708Z,75.70
2022-12-20T07:28:30.083Z,75.30
2022-12-20T07:31:06.844Z,75.50
2022-12-20T07:33:34.161Z,75.60
2022-12-20T07:36:12.787Z,75.70
2022-12-20T07:38:46.723Z,75.50
2022-12-20T07:41:15.129Z,75.60
2022-12-20T07:43:48.796Z,75.80
2022-12-20T07:46:16.265Z,75.80
2022-12-20T07:48:51.788Z,75.60
2022-12-20T07:51:21.578Z,75.50
2022-12-20T07:54:13.906Z,75.50
2022-12-20T07:56:43.383Z,75.20
2022-12-20T07:59:18.723Z,75.80
2022-12-20T08:01:46.042Z,75.50
2022-12-20T08:04:22.778Z,75.20
2022-12-20T08:06:50.748Z,74.90
2022-12-20T08:09:23.784Z,75.20
2022-12-20T08:11:51.070Z,75.40
2022-12-20T08:14:24.733Z,75.70
2022-12-20T08:16:57.861Z,75.40
2022-12-20T08:19:31.833Z,75.10
2022-12-20T08:22:05.796Z,75.10
2022-12-20T08:24:41.802Z,75.50
2022-12-20T08:27:08.691Z,75.50
2022-12-20T08:29:41.834Z,75.50
2022-12-20T08:32:08.701Z,75.60
2022-12-20T08:34:41.883Z,75.80
2022-12-20T08:37:14.741Z,75.90
2022-12-20T08:39:48.757Z,76.10
2022-12-20T08:42:21.819Z,76.10
2022-12-20T08:44:54.779Z,75.00
2022-12-20T08:47:21.685Z,74.70
2022-12-20T08:49:48.539Z,74.90
2022-12-20T08:52:22.740Z,75.00
2022-12-20T08:54:55.732Z,75.20
2022-12-20T08:57:28.850Z,75.80
2022-12-20T09:00:02.746Z,75.80
2022-12-20T09:02:29.835Z,75.70
2022-12-20T09:05:09.733Z,76.00
2022-12-20T09:07:42.769Z,76.30
2022-12-20T09:10:10.147Z,76.10
2022-12-20T09:12:44.750Z,75.80
2022-12-20T09:15:11.802Z,75.90
2022-12-20T09:17:44.817Z,75.80
2022-12-20T09:20:11.775Z,75.80
2022-12-20T09:22:44.773Z,75.80
2022-12-20T09:25:11.694Z,75.70
2022-12-20T09:27:44.783Z,75.20
2022-12-20T09:30:12.021Z,75.00
2022-12-20T09:32:45.763Z,74.50
2022-12-20T09:35:16.554Z,74.60
2022-12-20T09:37:52.839Z,75.20
2022-12-20T09:40:21.358Z,75.20
2022-12-20T09:42:55.807Z,74.80
2022-12-20T09:45:34.770Z,75.20
2022-12-20T09:48:01.664Z,75.40
2022-12-20T09:50:54.782Z,75.20
2022-12-20T09:53:30.732Z,74.80
2022-12-20T09:56:00.865Z,75.10
2022-12-20T09:58:33.774Z,75.20
2022-12-20T10:01:23.068Z,75.50
2022-12-20T10:04:12.852Z,75.70
2022-12-20T10:06:55.849Z,75.70
2022-12-20T10:09:28.796Z,75.70
2022-12-20T10:11:55.705Z,75.70
2022-12-20T10:14:22.582Z,75.50
2022-12-20T10:17:10.766Z,75.20
2022-12-20T10:20:19.797Z,75.10
2022-12-20T10:22:50.801Z,75.00
2022-12-20T10:25:29.769Z,74.90
2022-12-20T10:28:03.764Z,74.90
2022-12-20T10:30:32.366Z,74.80
2022-12-20T10:33:05.766Z,74.40
2022-12-20T10:35:46.828Z,74.50
2022-12-20T10:38:14.475Z,74.40
2022-12-20T10:43:45.883Z,74.00
2022-12-20T10:46:19.874Z,74.30
2022-12-20T10:48:54.757Z,74.50
2022-12-20T10:51:29.798Z,74.70
2022-12-20T10:54:01.678Z,74.70
2022-12-20T10:56:34.747Z,74.90
2022-12-20T10:59:03.349Z,74.60
2022-12-20T11:01:43.877Z,74.50
2022-12-20T11:04:52.786Z,74.80
2022-12-20T11:07:33.769Z,75.00
2022-12-20T11:10:01.964Z,75.10
2022-12-20T11:12:35.781Z,75.20
2022-12-20T11:15:20.115Z,75.50
2022-12-20T11:17:57.776Z,75.50
2022-12-20T11:20:37.803Z,75.20
2022-12-20T11:23:19.778Z,75.10
2022-12-20T11:26:04.749Z,75.10
2022-12-20T11:28:43.759Z,75.30
2022-12-20T11:31:29.454Z,75.20
2022-12-20T11:34:10.822Z,74.80
2022-12-20T11:36:37.663Z,74.50
2022-12-20T11:39:29.786Z,74.60
2022-12-20T11:42:09.985Z,74.30
2022-12-20T11:44:57.971Z,74.40
2022-12-20T11:47:49.197Z,74.50
2022-12-20T11:50:22.797Z,74.40
2022-12-20T11:53:13.797Z,74.40
2022-12-20T11:55:48.751Z,74.40
2022-12-20T11:58:19.945Z,74.60
2022-12-20T12:01:15.751Z,74.60
2022-12-20T12:03:53.045Z,74.40
2022-12-20T12:06:29.753Z,74.20
2022-12-20T12:09:11.863Z,74.40
2022-12-20T12:12:08.761Z,74.30
2022-12-20T12:14:46.678Z,74.30
2022-12-20T12:17:46.762Z,74.50
2022-12-20T12:20:25.827Z,74.90
2022-12-20T12:23:01.819Z,75.10
2022-12-20T12:25:28.707Z,75.40
2022-12-20T12:28:01.829Z,75.30
2022-12-20T12:30:36.784Z,75.30
2022-12-20T12:33:16.573Z,75.20
2022-12-20T12:35:56.867Z,75.10
2022-12-20T12:38:58.424Z,74.80
2022-12-20T12:41:38.872Z,74.70
2022-12-20T12:44:29.894Z,74.80
2022-12-20T12:47:06.863Z,74.70
2022-12-20T12:49:34.313Z,74.70
2022-12-20T12:52:03.137Z,74.80
2022-12-20T12:54:44.869Z,75.00
2022-12-20T12:57:22.857Z,74.90
2022-12-20T12:59:51.636Z,74.30
2022-12-20T13:02:27.148Z,74.30
2022-12-20T13:05:07.834Z,74.70
2022-12-20T13:07:40.969Z,74.60
2022-12-20T13:10:24.951Z,74.70
2022-12-20T13:12:58.886Z,74.40
2022-12-20T13:15:25.852Z,74.50
2022-12-20T13:18:06.847Z,74.40
2022-12-20T13:20:34.837Z,74.60
2022-12-20T13:23:18.979Z,74.60
2022-12-20T13:25:55.798Z,74.60
2022-12-20T13:28:29.869Z,74.50
2022-12-20T13:31:03.885Z,74.50
2022-12-20T13:33:50.953Z,74.40
2022-12-20T13:36:17.780Z,74.40
2022-12-20T13:39:04.822Z,74.30
2022-12-20T13:41:42.222Z,74.20
2022-12-20T13:44:21.809Z,74.00
2022-12-20T13:46:59.087Z,73.90
2022-12-20T13:49:34.889Z,73.40
2022-12-20T13:52:11.250Z,73.60
2022-12-20T13:54:49.891Z,73.60
2022-12-20T13:57:18.147Z,73.70
2022-12-20T14:00:01.771Z,73.80
2022-12-20T14:02:42.431Z,73.60
2022-12-20T14:05:25.778Z,73.70
2022-12-20T14:08:01.432Z,74.00
2022-12-20T14:10:37.806Z,74.00
2022-12-20T14:13:18.027Z,74.30
2022-12-20T14:15:51.811Z,74.10
2022-12-20T14:18:20.281Z,73.90
2022-12-20T14:21:06.792Z,74.00
2022-12-20T14:23:36.929Z,74.00
2022-12-20T14:26:10.812Z,74.40
2022-12-20T14:28:50.872Z,74.50
2022-12-20T14:31:23.939Z,74.30
2022-12-20T14:33:57.839Z,74.30
2022-12-20T14:36:24.787Z,74.30
2022-12-20T14:38:58.858Z,74.50
2022-12-20T14:41:31.921Z,74.60
2022-12-20T14:44:08.824Z,74.70
2022-12-20T14:46:36.058Z,74.70
2022-12-20T14:49:18.986Z,74.60
2022-12-20T14:51:46.604Z,74.40
2022-12-20T14:54:56.210Z,74.30
2022-12-20T14:57:16.808Z,74.30
2022-12-20T14:59:56.344Z,74.10
2022-12-20T15:02:43.129Z,74.30
2022-12-20T15:05:45.849Z,74.40
2022-12-20T15:08:17.169Z,74.40
2022-12-20T15:11:13.818Z,74.30
2022-12-20T15:13:42.665Z,74.30
2022-12-20T15:16:21.899Z,74.50
2022-12-20T15:18:49.718Z,74.70
2022-12-20T15:21:28.852Z,74.80
2022-12-20T15:23:57.078Z,75.00
2022-12-20T15:26:31.817Z,75.00
2022-12-20T15:28:58.829Z,74.80
2022-12-20T15:31:34.344Z,75.00
2022-12-20T15:34:04.547Z,74.80
2022-12-20T15:36:37.807Z,74.80
2022-12-20T15:39:13.086Z,74.80
2022-12-20T15:41:42.995Z,74.80
2022-12-20T15:44:32.906Z,74.80
2022-12-20T15:46:59.988Z,74.80
2022-12-20T15:49:35.839Z,74.80
2022-12-20T15:52:08.849Z,75.00
2022-12-20T15:54:43.821Z,75.00
2022-12-20T15:57:19.875Z,74.80
2022-12-20T16:00:03.177Z,74.70
2022-12-20T16:02:31.498Z,74.50
2022-12-20T16:05:12.169Z,74.50
2022-12-20T16:07:52.857Z,74.50
2022-12-20T16:10:25.997Z,74.60
2022-12-20T16:12:53.063Z,74.70
2022-12-20T16:15:27.908Z,75.00
2022-12-20T16:18:00.899Z,75.10
2022-12-20T16:20:35.865Z,75.30
2022-12-20T16:23:04.057Z,75.10
2022-12-20T16:25:38.932Z,74.80
2022-12-20T16:28:06.093Z,74.70
2022-12-20T16:30:39.869Z,74.80
2022-12-20T16:33:08.773Z,74.80
2022-12-20T16:35:43.898Z,74.70
2022-12-20T16:38:10.908Z,74.60
2022-12-20T16:40:44.859Z,74.50
2022-12-20T16:43:14.184Z,74.80
2022-12-20T16:45:48.864Z,74.90
2022-12-20T16:48:15.745Z,75.20
2022-12-20T16:50:43.745Z,75.40
2022-12-20T16:53:19.859Z,75.80
2022-12-20T16:55:53.383Z,76.10
2022-12-20T16:58:20.398Z,76.00
2022-12-20T17:00:53.879Z,75.70
2022-12-20T17:03:21.248Z,75.70
2022-12-20T17:06:03.848Z,75.40
2022-12-20T17:11:23.829Z,76.00
2022-12-20T17:13:58.819Z,76.20
2022-12-20T17:16:32.903Z,76.00
2022-12-20T17:19:06.861Z,76.30
2022-12-20T17:24:39.888Z,76.20
2022-12-20T17:27:06.858Z,76.20
2022-12-20T17:29:39.844Z,76.50
2022-12-20T17:32:20.932Z,76.60
2022-12-20T17:34:54.908Z,76.90
2022-12-20T17:37:21.975Z,77.00
2022-12-20T17:39:55.873Z,76.90
2022-12-20T17:42:31.692Z,76.90
2022-12-20T17:44:58.845Z,76.70
2022-12-20T17:47:31.888Z,76.70
2022-12-20T17:49:58.926Z,76.70
2022-12-20T17:52:32.994Z,76.70
2022-12-20T17:54:59.910Z,76.60
2022-12-20T17:57:36.965Z,76.40
2022-12-20T18:00:04.189Z,76.30
2022-12-20T18:02:37.953Z,76.30
2022-12-20T18:05:11.869Z,76.10
2022-12-20T18:07:45.040Z,76.30
2022-12-20T18:10:18.781Z,76.40
2022-12-20T18:12:45.680Z,76.40
2022-12-20T18:15:18.833Z,76.40
2022-12-20T18:17:52.866Z,76.40
2022-12-20T18:20:23.346Z,76.60
2022-12-20T18:22:57.974Z,80.20
2022-12-20T18:25:31.906Z,78.60
2022-12-20T18:27:58.812Z,77.30
2022-12-20T18:30:31.867Z,76.50
2022-12-20T18:32:58.719Z,76.10
2022-12-20T18:35:32.851Z,75.50
2022-12-20T18:38:06.837Z,75.70
2022-12-20T18:40:33.710Z,75.50
2022-12-20T18:43:07.800Z,75.90
2022-12-20T18:45:34.837Z,76.20
2022-12-20T18:48:08.843Z,76.40
2022-12-20T18:50:37.331Z,76.70
2022-12-20T18:53:10.904Z,76.80
2022-12-20T18:55:44.820Z,76.50
2022-12-20T18:58:13.351Z,76.40
2022-12-20T19:00:47.868Z,76.30
2022-12-20T19:03:14.819Z,76.20
2022-12-20T19:05:57.843Z,76.40
2022-12-20T19:08:25.248Z,76.10
2022-12-20T19:10:58.817Z,76.10
2022-12-20T19:13:26.063Z,76.30
2022-12-20T19:16:06.904Z,76.40
2022-12-20T19:18:34.223Z,76.50
2022-12-20T19:21:14.811Z,76.20
2022-12-20T19:23:42.249Z,75.80
2022-12-20T19:26:16.797Z,75.90
2022-12-20T19:28:43.898Z,76.20
2022-12-20T19:31:21.987Z,76.40
2022-12-20T19:33:50.641Z,76.40
2022-12-20T19:36:31.799Z,76.60
2022-12-20T19:39:00.284Z,76.70
2022-12-20T19:41:34.856Z,76.40
2022-12-20T19:44:02.019Z,76.60
2022-12-20T19:46:35.969Z,76.20
2022-12-20T19:49:03.728Z,76.10
2022-12-20T19:51:36.898Z,76.30
2022-12-20T19:54:03.885Z,76.60
2022-12-20T19:56:38.838Z,76.70
2022-12-20T19:59:05.864Z,76.20
2022-12-20T20:04:40.946Z,76.10
2022-12-20T20:07:20.822Z,75.90
2022-12-20T20:09:53.957Z,76.20
2022-12-20T20:12:20.872Z,76.40
2022-12-20T20:14:54.913Z,76.10
2022-12-20T20:17:21.870Z,76.20
2022-12-20T20:19:55.943Z,76.20
2022-12-20T20:22:23.351Z,76.60
2022-12-20T20:24:57.883Z,76.60
2022-12-20T20:27:24.854Z,76.70
2022-12-20T20:29:58.892Z,76.80
2022-12-20T20:32:25.891Z,76.80
2022-12-20T20:34:58.879Z,77.00
2022-12-20T20:37:25.784Z,76.90
2022-12-20T20:39:58.879Z,76.50
2022-12-20T20:42:25.744Z,76.50
2022-12-20T20:44:58.868Z,76.40
2022-12-20T20:47:32.844Z,77.00
2022-12-20T20:50:06.906Z,78.10
2022-12-20T20:52:34.729Z,77.00
2022-12-20T20:55:07.808Z,77.40
2022-12-20T20:57:40.846Z,77.80
2022-12-20T21:00:14.834Z,77.10
2022-12-20T21:02:42.404Z,76.80
2022-12-20T21:08:20.529Z,76.60
2022-12-20T21:10:54.909Z,76.40
2022-12-20T21:13:28.869Z,76.20
2022-12-20T21:16:01.941Z,76.50
2022-12-20T21:18:28.888Z,76.70
2022-12-20T21:21:02.870Z,76.30
2022-12-20T21:23:30.197Z,76.40
2022-12-20T21:25:57.718Z,76.30
2022-12-20T21:28:30.884Z,76.20
2022-12-20T21:31:09.127Z,76.30
2022-12-20T21:33:36.201Z,76.40
2022-12-20T21:36:10.853Z,76.30
2022-12-20T21:38:38.125Z,76.40
2022-12-20T21:41:12.951Z,76.30
2022-12-20T21:43:39.940Z,76.20
2022-12-20T21:46:17.929Z,76.20
2022-12-20T21:48:44.840Z,76.10
2022-12-20T21:51:19.892Z,76.20
2022-12-20T21:53:50.774Z,76.10
2022-12-20T21:56:29.095Z,76.00
2022-12-20T21:58:56.668Z,76.00
2022-12-20T22:01:31.983Z,76.10
2022-12-20T22:04:00.115Z,75.90
2022-12-20T22:06:41.183Z,75.40
2022-12-20T22:09:20.905Z,75.30
2022-12-20T22:11:50.909Z,75.70
2022-12-20T22:14:24.922Z,75.90
2022-12-20T22:16:58.853Z,75.80
2022-12-20T22:19:31.932Z,75.80
2022-12-20T22:22:04.894Z,76.00
2022-12-20T22:24:31.914Z,75.90
2022-12-20T22:27:11.148Z,76.00
2022-12-20T22:29:38.477Z,76.00
2022-12-20T22:32:11.967Z,76.10
2022-12-20T22:34:38.938Z,76.00
2022-12-20T22:37:05.757Z,76.00
2022-12-20T22:39:38.831Z,75.80
2022-12-20T22:42:05.990Z,75.60
2022-12-20T22:44:39.822Z,75.60
2022-12-20T22:47:06.732Z,75.60
2022-12-20T22:49:39.922Z,75.20
2022-12-20T22:52:12.891Z,74.90
2022-12-20T22:54:39.849Z,74.80
2022-12-20T22:57:13.872Z,74.70
2022-12-20T22:59:47.884Z,75.10
2022-12-20T23:02:20.946Z,75.30
2022-12-20T23:04:54.044Z,75.70
2022-12-20T23:07:33.912Z,76.20
2022-12-20T23:10:00.824Z,76.40
2022-12-20T23:12:52.871Z,76.30
2022-12-20T23:15:44.819Z,75.90
2022-12-20T23:18:19.035Z,75.80
2022-12-20T23:21:08.114Z,75.80
2022-12-20T23:23:41.846Z,76.00
2022-12-20T23:26:12.257Z,76.10
2022-12-20T23:28:45.869Z,76.10
2022-12-20T23:31:12.783Z,75.80
2022-12-20T23:33:46.934Z,75.60
2022-12-20T23:36:20.885Z,75.80
2022-12-20T23:38:53.867Z,75.80
2022-12-20T23:41:26.920Z,75.50
2022-12-20T23:43:53.808Z,75.40
2022-12-20T23:46:21.987Z,75.50
2022-12-20T23:48:57.889Z,76.00
2022-12-20T23:51:24.920Z,76.30
2022-12-20T23:53:59.900Z,76.40
2022-12-20T23:56:33.891Z,76.40
2022-12-20T23:59:01.401Z,76.30
